Time;durP1;ratioP1;P1;durP2;ratioP2;P2;SDS_P1;SDS_P2;PMS_P1;PMS_P2;Temp;Humidity;BMP_temperature;BMP_pressure;BME280_temperature;BME280_humidity;BME280_pressure;Samples;Min_cycle;Max_cycle;Signal;HPM_P1;HPM_P2
2023/09/08 00:02:08;;;;;;;0.00;0.00;;;;;;;;;;5073620;28;20071;-82
2023/09/08 00:04:34;;;;;;;0.00;0.00;;;;;;;;;;5073567;28;20480;-82
2023/09/08 00:07:00;;;;;;;0.00;0.00;;;;;;;;;;5073666;28;20499;-82
2023/09/08 00:09:26;;;;;;;0.00;0.00;;;;;;;;;;5073451;28;20119;-82
2023/09/08 00:11:54;;;;;;;0.00;0.00;;;;;;;;;;5073772;28;20170;-82
2023/09/08 00:14:20;;;;;;;0.00;0.00;;;;;;;;;;5073319;28;20119;-82
2023/09/08 00:16:46;;;;;;;0.00;0.00;;;;;;;;;;5074607;28;20059;-82
2023/09/08 00:19:13;;;;;;;0.00;0.00;;;;;;;;;;5074595;28;20045;-82
2023/09/08 00:21:39;;;;;;;0.52;0.13;;;;;;;;;;5073532;28;20050;-82
2023/09/08 00:24:05;;;;;;;0.00;0.00;;;;;;;;;;5073426;28;20086;-82
2023/09/08 00:26:31;;;;;;;0.00;0.00;;;;;;;;;;5073429;28;20526;-82
2023/09/08 00:28:57;;;;;;;0.00;0.00;;;;;;;;;;5072567;28;20079;-84
2023/09/08 00:31:23;;;;;;;0.00;0.00;;;;;;;;;;5074343;28;20072;-82
2023/09/08 00:33:49;;;;;;;0.00;0.00;;;;;;;;;;5073242;28;20094;-82
2023/09/08 00:36:15;;;;;;;0.00;0.00;;;;;;;;;;5074894;28;20111;-82
2023/09/08 00:38:41;;;;;;;0.20;0.20;;;;;;;;;;5074720;28;20105;-82
2023/09/08 00:41:07;;;;;;;0.00;0.00;;;;;;;;;;5074756;28;20479;-82
2023/09/08 00:43:34;;;;;;;0.47;0.20;;;;;;;;;;5074771;28;20037;-82
2023/09/08 00:46:02;;;;;;;0.00;0.00;;;;;;;;;;5073181;28;20047;-82
2023/09/08 00:48:28;;;;;;;0.00;0.00;;;;;;;;;;5074608;28;20036;-82
2023/09/08 00:50:54;;;;;;;0.00;0.00;;;;;;;;;;5072860;28;20040;-82
2023/09/08 00:53:21;;;;;;;0.00;0.00;;;;;;;;;;5073314;28;20040;-82
2023/09/08 00:55:48;;;;;;;0.00;0.00;;;;;;;;;;5072592;28;20089;-82
2023/09/08 00:58:14;;;;;;;0.00;0.00;;;;;;;;;;5074336;28;20082;-82
2023/09/08 01:00:40;;;;;;;0.00;0.00;;;;;;;;;;5072520;28;20036;-83
2023/09/08 01:03:06;;;;;;;0.00;0.00;;;;;;;;;;5074250;28;20124;-82
2023/09/08 01:05:32;;;;;;;0.00;0.00;;;;;;;;;;5072846;28;20052;-82
2023/09/08 01:07:59;;;;;;;0.00;0.00;;;;;;;;;;5073901;28;20037;-82
2023/09/08 01:10:25;;;;;;;0.00;0.00;;;;;;;;;;5072516;28;20338;-82
2023/09/08 01:12:52;;;;;;;0.30;0.08;;;;;;;;;;5072499;28;20048;-82
2023/09/08 01:15:18;;;;;;;0.00;0.00;;;;;;;;;;5073678;28;20064;-82
2023/09/08 01:17:44;;;;;;;0.00;0.00;;;;;;;;;;5072582;28;20056;-82
2023/09/08 01:20:10;;;;;;;0.00;0.00;;;;;;;;;;5072092;28;20044;-83
2023/09/08 01:22:45;;;;;;;0.25;0.25;;;;;;;;;;5072319;28;20064;-82
2023/09/08 01:25:27;;;;;;;0.00;0.00;;;;;;;;;;5073555;28;20037;-83
2023/09/08 01:27:54;;;;;;;0.00;0.00;;;;;;;;;;5055627;28;20045;-82
2023/09/08 01:30:21;;;;;;;0.00;0.00;;;;;;;;;;5073365;28;20036;-82
2023/09/08 01:32:48;;;;;;;0.30;0.30;;;;;;;;;;5073422;28;20063;-82
2023/09/08 01:35:14;;;;;;;0.00;0.00;;;;;;;;;;5071958;28;20043;-82
2023/09/08 01:37:45;;;;;;;0.00;0.00;;;;;;;;;;5073280;28;20040;-82
2023/09/08 01:40:11;;;;;;;0.05;0.05;;;;;;;;;;5070946;28;20040;-83
2023/09/08 01:42:38;;;;;;;0.00;0.00;;;;;;;;;;5073440;28;20072;-82
2023/09/08 01:45:04;;;;;;;0.00;0.00;;;;;;;;;;5072945;28;20040;-83
2023/09/08 01:47:31;;;;;;;0.00;0.00;;;;;;;;;;5071899;28;20523;-83
2023/09/08 01:49:58;;;;;;;0.00;0.00;;;;;;;;;;5071522;28;20040;-83
2023/09/08 01:52:25;;;;;;;0.00;0.00;;;;;;;;;;5071848;28;20048;-82
2023/09/08 01:54:51;;;;;;;0.00;0.00;;;;;;;;;;5073027;28;20048;-82
2023/09/08 01:57:17;;;;;;;0.00;0.00;;;;;;;;;;5071519;28;20079;-82
2023/09/08 01:59:44;;;;;;;0.00;0.00;;;;;;;;;;5071320;28;20475;-83
2023/09/08 02:02:10;;;;;;;0.00;0.00;;;;;;;;;;5071677;28;20341;-82
2023/09/08 02:04:36;;;;;;;0.00;0.00;;;;;;;;;;5072921;28;20037;-82
2023/09/08 02:07:03;;;;;;;0.00;0.00;;;;;;;;;;5073102;28;20037;-84
2023/09/08 02:09:32;;;;;;;0.00;0.00;;;;;;;;;;5071667;28;20105;-83
2023/09/08 02:11:58;;;;;;;0.00;0.00;;;;;;;;;;5071611;28;20036;-82
2023/09/08 02:14:24;;;;;;;0.05;0.00;;;;;;;;;;5071584;28;20052;-82
2023/09/08 02:16:50;;;;;;;0.00;0.00;;;;;;;;;;5072404;28;20056;-83
2023/09/08 02:19:16;;;;;;;0.00;0.00;;;;;;;;;;5071583;28;20040;-83
2023/09/08 02:21:42;;;;;;;0.00;0.00;;;;;;;;;;5071226;28;20487;-82
2023/09/08 02:24:08;;;;;;;0.00;0.00;;;;;;;;;;5072896;28;20066;-82
2023/09/08 02:26:35;;;;;;;1.08;0.15;;;;;;;;;;5072445;28;20040;-83
2023/09/08 02:29:01;;;;;;;0.00;0.00;;;;;;;;;;5072769;28;20074;-82
2023/09/08 02:31:27;;;;;;;0.25;0.03;;;;;;;;;;5071082;28;20559;-82
2023/09/08 02:33:53;;;;;;;0.00;0.00;;;;;;;;;;5072565;28;20484;-82
2023/09/08 02:36:25;;;;;;;0.00;0.00;;;;;;;;;;5072462;28;20051;-83
2023/09/08 02:38:51;;;;;;;0.00;0.00;;;;;;;;;;5071257;28;20412;-83
2023/09/08 02:41:17;;;;;;;0.00;0.00;;;;;;;;;;5070950;28;20124;-82
2023/09/08 02:43:43;;;;;;;0.00;0.00;;;;;;;;;;5072793;28;20068;-82
2023/09/08 02:46:09;;;;;;;0.00;0.00;;;;;;;;;;5071056;28;20044;-82
2023/09/08 02:48:35;;;;;;;0.00;0.00;;;;;;;;;;5071381;28;20124;-82
2023/09/08 02:51:01;;;;;;;0.10;0.00;;;;;;;;;;5071721;28;20389;-82
2023/09/08 02:53:28;;;;;;;0.00;0.00;;;;;;;;;;5076548;28;20052;-82
2023/09/08 02:55:57;;;;;;;0.00;0.00;;;;;;;;;;5074989;28;20041;-82
2023/09/08 02:58:23;;;;;;;0.00;0.00;;;;;;;;;;5075573;28;20384;-82
2023/09/08 03:00:51;;;;;;;0.00;0.00;;;;;;;;;;5076142;28;20098;-83
2023/09/08 03:03:18;;;;;;;0.00;0.00;;;;;;;;;;5058389;28;20037;-83
2023/09/08 03:05:44;;;;;;;0.00;0.00;;;;;;;;;;5074731;28;20053;-83
2023/09/08 03:08:09;;;;;;;0.00;0.00;;;;;;;;;;5074787;28;20063;-83
2023/09/08 03:10:35;;;;;;;0.00;0.00;;;;;;;;;;5074729;28;20094;-83
2023/09/08 03:13:02;;;;;;;0.00;0.00;;;;;;;;;;5075918;28;20044;-82
2023/09/08 03:15:28;;;;;;;0.73;0.08;;;;;;;;;;5074466;28;20071;-82
2023/09/08 03:18:01;;;;;;;0.00;0.00;;;;;;;;;;5075950;28;20154;-82
2023/09/08 03:20:28;;;;;;;0.00;0.00;;;;;;;;;;5074784;28;20036;-82
2023/09/08 03:22:54;;;;;;;0.00;0.00;;;;;;;;;;5075972;28;20044;-82
2023/09/08 03:25:20;;;;;;;0.00;0.00;;;;;;;;;;5074656;28;20418;-83
2023/09/08 03:27:46;;;;;;;0.00;0.00;;;;;;;;;;5075722;28;20456;-83
2023/09/08 03:30:12;;;;;;;0.00;0.00;;;;;;;;;;5074546;28;20048;-83
2023/09/08 03:32:38;;;;;;;0.00;0.00;;;;;;;;;;5075715;28;20067;-82
2023/09/08 03:35:08;;;;;;;0.00;0.00;;;;;;;;;;5074433;28;20040;-82
2023/09/08 03:37:36;;;;;;;0.00;0.00;;;;;;;;;;5075632;28;20049;-82
2023/09/08 03:40:06;;;;;;;0.22;0.03;;;;;;;;;;5074201;28;20087;-82
2023/09/08 03:42:32;;;;;;;2.10;0.35;;;;;;;;;;5074097;28;20048;-82
2023/09/08 03:44:58;;;;;;;0.22;0.20;;;;;;;;;;5074441;28;20092;-82
2023/09/08 03:47:24;;;;;;;0.00;0.00;;;;;;;;;;5074055;28;20044;-82
2023/09/08 03:49:50;;;;;;;0.00;0.00;;;;;;;;;;5075454;28;20032;-82
2023/09/08 03:52:16;;;;;;;0.00;0.00;;;;;;;;;;5075135;28;20392;-83
2023/09/08 03:54:42;;;;;;;0.00;0.00;;;;;;;;;;5057318;28;20052;-82
2023/09/08 03:57:08;;;;;;;0.00;0.00;;;;;;;;;;5075064;28;20040;-83
2023/09/08 03:59:34;;;;;;;0.00;0.00;;;;;;;;;;5073746;28;20066;-82
2023/09/08 04:02:01;;;;;;;0.00;0.00;;;;;;;;;;5073775;28;20093;-82
2023/09/08 04:04:27;;;;;;;0.00;0.00;;;;;;;;;;5074152;28;20493;-82
2023/09/08 04:06:53;;;;;;;0.38;0.05;;;;;;;;;;5074773;28;20091;-82
2023/09/08 04:09:19;;;;;;;0.00;0.00;;;;;;;;;;5074920;28;20036;-82
2023/09/08 04:11:45;;;;;;;0.00;0.00;;;;;;;;;;5073637;28;20056;-82
2023/09/08 04:14:11;;;;;;;0.00;0.00;;;;;;;;;;5075077;28;20116;-82
2023/09/08 04:16:37;;;;;;;0.00;0.00;;;;;;;;;;5074505;28;20389;-82
2023/09/08 04:19:03;;;;;;;0.00;0.00;;;;;;;;;;5075015;28;20082;-82
2023/09/08 04:21:28;;;;;;;0.00;0.00;;;;;;;;;;5073293;28;20049;-82
2023/09/08 04:23:54;;;;;;;0.00;0.00;;;;;;;;;;5073432;28;20069;-82
2023/09/08 04:26:20;;;;;;;0.00;0.00;;;;;;;;;;5073143;28;20403;-82
2023/09/08 04:28:46;;;;;;;0.00;0.00;;;;;;;;;;5073660;28;20045;-82
2023/09/08 04:31:12;;;;;;;0.00;0.00;;;;;;;;;;5073044;28;20040;-83
2023/09/08 04:33:39;;;;;;;0.00;0.00;;;;;;;;;;5074586;28;20032;-82
2023/09/08 04:36:05;;;;;;;0.00;0.00;;;;;;;;;;5074100;28;20111;-82
2023/09/08 04:38:31;;;;;;;0.00;0.00;;;;;;;;;;5073024;28;20465;-82
2023/09/08 04:40:57;;;;;;;0.00;0.00;;;;;;;;;;5074607;28;20033;-83
2023/09/08 04:43:23;;;;;;;0.00;0.00;;;;;;;;;;5074005;28;20400;-82
2023/09/08 04:45:50;;;;;;;0.15;0.08;;;;;;;;;;5056207;28;20041;-82
2023/09/08 04:48:16;;;;;;;0.00;0.00;;;;;;;;;;5073052;28;20033;-84
2023/09/08 04:50:42;;;;;;;0.00;0.00;;;;;;;;;;5072961;28;20111;-82
2023/09/08 04:53:08;;;;;;;0.00;0.00;;;;;;;;;;5073772;28;20036;-82
2023/09/08 04:55:34;;;;;;;0.00;0.00;;;;;;;;;;5074275;28;20036;-82
2023/09/08 04:58:00;;;;;;;0.00;0.00;;;;;;;;;;5074074;28;20044;-82
2023/09/08 05:00:26;;;;;;;0.00;0.00;;;;;;;;;;5072810;28;20068;-82
2023/09/08 05:02:52;;;;;;;0.00;0.00;;;;;;;;;;5073766;28;20051;-82
2023/09/08 05:05:18;;;;;;;0.00;0.00;;;;;;;;;;5072661;28;20357;-82
2023/09/08 05:07:45;;;;;;;0.00;0.00;;;;;;;;;;5072473;28;20040;-82
2023/09/08 05:10:11;;;;;;;0.00;0.00;;;;;;;;;;5073976;28;20050;-82
2023/09/08 05:12:37;;;;;;;0.00;0.00;;;;;;;;;;5072931;28;20040;-82
2023/09/08 05:15:10;;;;;;;0.10;0.03;;;;;;;;;;5072489;28;20060;-83
2023/09/08 05:17:36;;;;;;;0.00;0.00;;;;;;;;;;5073865;28;20084;-83
2023/09/08 05:20:03;;;;;;;0.00;0.00;;;;;;;;;;5072722;28;20130;-82
2023/09/08 05:22:29;;;;;;;0.00;0.00;;;;;;;;;;5073343;28;20082;-83
2023/09/08 05:24:55;;;;;;;0.00;0.00;;;;;;;;;;5072290;28;20045;-82
2023/09/08 05:27:21;;;;;;;0.20;0.10;;;;;;;;;;5071960;28;20044;-83
2023/09/08 05:29:47;;;;;;;0.00;0.00;;;;;;;;;;5072154;28;20045;-83
2023/09/08 05:32:13;;;;;;;0.00;0.00;;;;;;;;;;5073296;28;20050;-83
2023/09/08 05:34:39;;;;;;;0.00;0.00;;;;;;;;;;5072408;28;20086;-83
2023/09/08 05:37:05;;;;;;;0.00;0.00;;;;;;;;;;5073203;28;20097;-83
2023/09/08 05:39:31;;;;;;;0.00;0.00;;;;;;;;;;5073277;28;20037;-83
2023/09/08 05:41:57;;;;;;;0.00;0.00;;;;;;;;;;5071700;28;20094;-82
2023/09/08 05:44:25;;;;;;;0.43;0.20;;;;;;;;;;5073171;28;20329;-82
2023/09/08 05:46:51;;;;;;;0.00;0.00;;;;;;;;;;5071699;28;20118;-82
2023/09/08 05:49:17;;;;;;;0.00;0.00;;;;;;;;;;5071769;28;20553;-82
2023/09/08 05:51:44;;;;;;;0.00;0.00;;;;;;;;;;5072732;28;20051;-83
2023/09/08 05:54:10;;;;;;;0.00;0.00;;;;;;;;;;5071845;28;20507;-82
2023/09/08 05:56:37;;;;;;;0.00;0.00;;;;;;;;;;5071898;28;20052;-82
2023/09/08 05:59:03;;;;;;;0.00;0.00;;;;;;;;;;5071603;28;20436;-82
2023/09/08 06:01:29;;;;;;;0.00;0.00;;;;;;;;;;5071473;28;20059;-82
2023/09/08 06:03:56;;;;;;;0.00;0.00;;;;;;;;;;5072467;28;20037;-82
2023/09/08 06:06:22;;;;;;;0.00;0.00;;;;;;;;;;5073063;28;20115;-82
2023/09/08 06:08:48;;;;;;;0.00;0.00;;;;;;;;;;5071252;28;20044;-82
2023/09/08 06:11:14;;;;;;;0.30;0.30;;;;;;;;;;5071632;28;20051;-82
2023/09/08 06:13:40;;;;;;;0.00;0.00;;;;;;;;;;5072677;28;20090;-82
2023/09/08 06:16:07;;;;;;;0.00;0.00;;;;;;;;;;5072430;28;20080;-82
2023/09/08 06:18:39;;;;;;;0.00;0.00;;;;;;;;;;5071123;28;20442;-82
2023/09/08 06:21:05;;;;;;;0.00;0.00;;;;;;;;;;5071195;28;20097;-82
2023/09/08 06:23:31;;;;;;;0.00;0.00;;;;;;;;;;5054610;28;20036;-82
2023/09/08 06:26:03;;;;;;;0.00;0.00;;;;;;;;;;5071129;28;20050;-82
2023/09/08 06:28:29;;;;;;;0.00;0.00;;;;;;;;;;5071049;28;20043;-84
2023/09/08 06:30:55;;;;;;;0.00;0.00;;;;;;;;;;5071269;28;20083;-84
2023/09/08 06:33:24;;;;;;;0.00;0.00;;;;;;;;;;5072435;28;20047;-84
2023/09/08 06:35:50;;;;;;;0.00;0.00;;;;;;;;;;5074000;28;20423;-84
2023/09/08 06:38:16;;;;;;;0.00;0.00;;;;;;;;;;5071154;28;20429;-84
2023/09/08 06:40:42;;;;;;;0.00;0.00;;;;;;;;;;5071092;28;20082;-89
2023/09/08 06:43:08;;;;;;;0.00;0.00;;;;;;;;;;5054423;28;20097;-85
2023/09/08 06:45:34;;;;;;;0.00;0.00;;;;;;;;;;5072576;28;20036;-84
2023/09/08 06:48:00;;;;;;;0.00;0.00;;;;;;;;;;5072195;28;20492;-84
2023/09/08 06:50:26;;;;;;;0.00;0.00;;;;;;;;;;5054545;28;20048;-84
2023/09/08 06:52:53;;;;;;;0.00;0.00;;;;;;;;;;5071383;28;20332;-87
2023/09/08 06:55:19;;;;;;;0.00;0.00;;;;;;;;;;5071046;28;20050;-87
2023/09/08 06:57:45;;;;;;;0.00;0.00;;;;;;;;;;5070708;28;20116;-88
2023/09/08 07:00:12;;;;;;;0.00;0.00;;;;;;;;;;5070832;28;20479;-86
2023/09/08 07:02:38;;;;;;;0.00;0.00;;;;;;;;;;5070987;28;20045;-85
2023/09/08 07:05:08;;;;;;;0.00;0.00;;;;;;;;;;5071158;28;20036;-84
2023/09/08 07:07:35;;;;;;;0.00;0.00;;;;;;;;;;5072062;28;20041;-84
2023/09/08 07:10:01;;;;;;;0.00;0.00;;;;;;;;;;5070991;28;20053;-84
2023/09/08 07:12:27;;;;;;;0.00;0.00;;;;;;;;;;5072281;28;20040;-82
2023/09/08 07:14:53;;;;;;;0.00;0.00;;;;;;;;;;5070595;28;20377;-83
2023/09/08 07:17:19;;;;;;;0.00;0.00;;;;;;;;;;5070599;28;20138;-83
2023/09/08 07:19:45;;;;;;;0.00;0.00;;;;;;;;;;5070736;28;20499;-83
2023/09/08 07:22:11;;;;;;;0.00;0.00;;;;;;;;;;5070740;28;20040;-83
2023/09/08 07:24:37;;;;;;;0.00;0.00;;;;;;;;;;5071906;28;20450;-83
2023/09/08 07:27:03;;;;;;;0.00;0.00;;;;;;;;;;5070813;28;20051;-84
2023/09/08 07:29:29;;;;;;;0.00;0.00;;;;;;;;;;5071639;28;20480;-83
2023/09/08 07:31:55;;;;;;;0.00;0.00;;;;;;;;;;5071163;28;20060;-91
2023/09/08 07:34:21;;;;;;;0.00;0.00;;;;;;;;;;5070102;28;20110;-84
2023/09/08 07:36:47;;;;;;;0.00;0.00;;;;;;;;;;5069996;28;20480;-83
2023/09/08 07:39:13;;;;;;;0.00;0.00;;;;;;;;;;5074103;28;20043;-84
2023/09/08 07:41:40;;;;;;;0.00;0.00;;;;;;;;;;5074373;28;20085;-84
2023/09/08 07:44:06;;;;;;;0.00;0.00;;;;;;;;;;5073863;28;20545;-84
2023/09/08 07:46:32;;;;;;;0.00;0.00;;;;;;;;;;5073934;28;20067;-84
2023/09/08 07:48:59;;;;;;;0.00;0.00;;;;;;;;;;5073882;28;20041;-83
2023/09/08 07:51:25;;;;;;;0.00;0.00;;;;;;;;;;5057305;28;20044;-84
2023/09/08 07:53:52;;;;;;;0.00;0.00;;;;;;;;;;5073867;28;20051;-84
2023/09/08 07:56:18;;;;;;;0.00;0.00;;;;;;;;;;5074168;28;20170;-84
2023/09/08 07:58:44;;;;;;;0.00;0.00;;;;;;;;;;5057188;28;20078;-83
2023/09/08 08:01:10;;;;;;;0.00;0.00;;;;;;;;;;5073994;28;20060;-83
2023/09/08 08:03:37;;;;;;;0.00;0.00;;;;;;;;;;5073899;28;20044;-83
2023/09/08 08:06:03;;;;;;;0.00;0.00;;;;;;;;;;5074032;28;20127;-83
2023/09/08 08:08:30;;;;;;;0.00;0.00;;;;;;;;;;5074675;28;20037;-83
2023/09/08 08:10:56;;;;;;;0.00;0.00;;;;;;;;;;5073379;28;20040;-83
2023/09/08 08:13:22;;;;;;;0.00;0.00;;;;;;;;;;5074735;28;20411;-83
2023/09/08 08:15:48;;;;;;;0.20;0.00;;;;;;;;;;5073233;28;20056;-83
2023/09/08 08:18:14;;;;;;;0.00;0.00;;;;;;;;;;5074581;28;20369;-83
2023/09/08 08:20:40;;;;;;;0.00;0.00;;;;;;;;;;5073426;28;20078;-83
2023/09/08 08:23:06;;;;;;;0.00;0.00;;;;;;;;;;5073352;28;20471;-83
2023/09/08 08:25:33;;;;;;;0.00;0.00;;;;;;;;;;5073419;28;20041;-83
2023/09/08 08:28:02;;;;;;;0.00;0.00;;;;;;;;;;5073474;28;20044;-83
2023/09/08 08:30:28;;;;;;;0.00;0.00;;;;;;;;;;5073042;28;20135;-83
2023/09/08 08:32:54;;;;;;;0.00;0.00;;;;;;;;;;5073173;28;20044;-83
2023/09/08 08:35:21;;;;;;;0.00;0.00;;;;;;;;;;5074370;28;20144;-83
2023/09/08 08:37:47;;;;;;;0.00;0.00;;;;;;;;;;5074539;28;20368;-83
2023/09/08 08:40:13;;;;;;;0.00;0.00;;;;;;;;;;5055983;28;20049;-83
2023/09/08 08:42:39;;;;;;;0.00;0.00;;;;;;;;;;5074527;28;20041;-83
2023/09/08 08:45:05;;;;;;;0.00;0.00;;;;;;;;;;5072780;28;20460;-82
2023/09/08 08:47:32;;;;;;;0.00;0.00;;;;;;;;;;5074208;28;20036;-83
2023/09/08 08:49:59;;;;;;;0.00;0.00;;;;;;;;;;5073855;28;20040;-82
2023/09/08 08:52:26;;;;;;;0.00;0.00;;;;;;;;;;5072933;28;20040;-83
2023/09/08 08:54:52;;;;;;;0.00;0.00;;;;;;;;;;5073803;28;20392;-83
2023/09/08 08:57:18;;;;;;;0.00;0.00;;;;;;;;;;5072691;28;20146;-83
2023/09/08 08:59:44;;;;;;;0.00;0.00;;;;;;;;;;5072429;28;20044;-83
2023/09/08 09:02:12;;;;;;;0.00;0.00;;;;;;;;;;5074056;28;20165;-84
2023/09/08 09:04:38;;;;;;;0.00;0.00;;;;;;;;;;5073783;28;20083;-83
2023/09/08 09:07:08;;;;;;;0.00;0.00;;;;;;;;;;5074017;28;20048;-83
2023/09/08 09:09:34;;;;;;;0.00;0.00;;;;;;;;;;5072443;28;20044;-83
2023/09/08 09:12:02;;;;;;;0.00;0.00;;;;;;;;;;5072415;28;20036;-82
2023/09/08 09:14:28;;;;;;;0.00;0.00;;;;;;;;;;5072112;28;20502;-83
2023/09/08 09:16:56;;;;;;;0.00;0.00;;;;;;;;;;5072057;28;20057;-82
2023/09/08 09:19:31;;;;;;;0.00;0.00;;;;;;;;;;5072029;28;20044;-83
2023/09/08 09:21:57;;;;;;;0.00;0.00;;;;;;;;;;5055708;28;20055;-83
2023/09/08 09:24:32;;;;;;;0.00;0.00;;;;;;;;;;5073124;28;20476;-82
2023/09/08 09:26:58;;;;;;;0.00;0.00;;;;;;;;;;5072460;28;20049;-83
2023/09/08 09:29:24;;;;;;;0.00;0.00;;;;;;;;;;5072129;28;20555;-82
2023/09/08 09:31:54;;;;;;;0.00;0.00;;;;;;;;;;5073545;28;20119;-82
2023/09/08 09:34:21;;;;;;;0.00;0.00;;;;;;;;;;5072268;28;20127;-82
2023/09/08 09:36:49;;;;;;;0.00;0.00;;;;;;;;;;5073426;28;20094;-83
2023/09/08 09:39:19;;;;;;;0.00;0.00;;;;;;;;;;5055054;28;20047;-83
2023/09/08 09:41:46;;;;;;;0.00;0.00;;;;;;;;;;5072398;28;20041;-84
2023/09/08 09:44:12;;;;;;;0.00;0.00;;;;;;;;;;5072118;28;20036;-83
2023/09/08 09:46:38;;;;;;;0.00;0.00;;;;;;;;;;5073171;28;20101;-83
2023/09/08 09:49:04;;;;;;;0.00;0.00;;;;;;;;;;5072264;28;20044;-83
2023/09/08 09:51:30;;;;;;;0.00;0.00;;;;;;;;;;5073180;28;20048;-82
2023/09/08 09:53:58;;;;;;;0.00;0.00;;;;;;;;;;5071776;28;20499;-82
2023/09/08 09:56:24;;;;;;;0.00;0.00;;;;;;;;;;5071345;28;20404;-82
2023/09/08 09:58:53;;;;;;;0.00;0.00;;;;;;;;;;5072959;28;20121;-85
2023/09/08 10:01:20;;;;;;;0.00;0.00;;;;;;;;;;5071648;28;20037;-83
2023/09/08 10:03:46;;;;;;;0.00;0.00;;;;;;;;;;5071666;28;20361;-84
2023/09/08 10:06:13;;;;;;;0.00;0.00;;;;;;;;;;5071733;28;20052;-84
2023/09/08 10:08:39;;;;;;;0.00;0.00;;;;;;;;;;5054772;28;20076;-85
2023/09/08 10:11:09;;;;;;;0.00;0.00;;;;;;;;;;5071424;28;20055;-85
2023/09/08 10:13:42;;;;;;;0.00;0.00;;;;;;;;;;5073031;28;20044;-85
2023/09/08 10:16:09;;;;;;;0.00;0.00;;;;;;;;;;5054532;28;20053;-84
2023/09/08 10:18:35;;;;;;;0.00;0.00;;;;;;;;;;5072841;28;20044;-85
2023/09/08 10:21:04;;;;;;;0.00;0.00;;;;;;;;;;5071241;28;20040;-85
2023/09/08 10:23:37;;;;;;;0.00;0.00;;;;;;;;;;5071636;28;20044;-85
2023/09/08 10:26:05;;;;;;;0.00;0.00;;;;;;;;;;5071447;28;20492;-85
2023/09/08 10:28:33;;;;;;;0.00;0.00;;;;;;;;;;5071327;28;20495;-84
2023/09/08 10:30:59;;;;;;;0.00;0.00;;;;;;;;;;5071306;28;20318;-87
2023/09/08 10:33:26;;;;;;;0.00;0.00;;;;;;;;;;5071318;28;20051;-85
2023/09/08 10:35:52;;;;;;;0.00;0.00;;;;;;;;;;5072396;28;20041;-85
2023/09/08 10:38:22;;;;;;;0.00;0.00;;;;;;;;;;5072606;28;20048;-85
2023/09/08 10:40:48;;;;;;;0.00;0.00;;;;;;;;;;5070930;28;20048;-86
2023/09/08 10:43:14;;;;;;;0.00;0.00;;;;;;;;;;5071393;28;20043;-85
2023/09/08 10:45:41;;;;;;;0.00;0.00;;;;;;;;;;5072327;28;20072;-84
2023/09/08 10:48:07;;;;;;;0.00;0.00;;;;;;;;;;5072464;28;20037;-84
2023/09/08 10:50:34;;;;;;;0.00;0.00;;;;;;;;;;5070971;28;20526;-84
2023/09/08 10:53:21;;;;;;;0.00;0.00;;;;;;;;;;5070859;28;20080;-84
2023/09/08 10:55:48;;;;;;;0.00;0.00;;;;;;;;;;5054361;28;20507;-85
2023/09/08 10:58:33;;;;;;;0.00;0.00;;;;;;;;;;5071030;28;20430;-85
2023/09/08 11:01:01;;;;;;;0.00;0.00;;;;;;;;;;5070881;28;20455;-85
2023/09/08 11:03:39;;;;;;;0.00;0.00;;;;;;;;;;5071482;28;20271;-89
2023/09/08 11:06:12;;;;;;;0.00;0.00;;;;;;;;;;5054697;28;20089;-90
2023/09/08 11:08:39;;;;;;;0.00;0.00;;;;;;;;;;5072477;28;20504;-88
2023/09/08 11:11:05;;;;;;;0.00;0.00;;;;;;;;;;5071191;28;20066;-87
2023/09/08 11:13:31;;;;;;;0.00;0.00;;;;;;;;;;5074322;28;20059;-88
2023/09/08 11:15:57;;;;;;;0.00;0.00;;;;;;;;;;5074554;28;20496;-87
2023/09/08 11:18:27;;;;;;;0.00;0.00;;;;;;;;;;5074917;28;20128;-88
2023/09/08 11:20:55;;;;;;;0.00;0.00;;;;;;;;;;5074609;28;20037;-89
2023/09/08 11:23:21;;;;;;;0.00;0.00;;;;;;;;;;5074825;28;20383;-89
2023/09/08 11:25:48;;;;;;;0.00;0.00;;;;;;;;;;5075062;28;20044;-88
2023/09/08 11:28:14;;;;;;;0.00;0.00;;;;;;;;;;5074820;28;20071;-88
2023/09/08 11:30:40;;;;;;;0.00;0.00;;;;;;;;;;5075679;28;20059;-87
2023/09/08 11:33:14;;;;;;;0.00;0.00;;;;;;;;;;5074274;28;20094;-87
2023/09/08 11:35:43;;;;;;;0.00;0.00;;;;;;;;;;5074620;28;20055;-88
2023/09/08 11:38:10;;;;;;;0.00;0.00;;;;;;;;;;5074803;28;20076;-91
2023/09/08 11:40:36;;;;;;;0.00;0.00;;;;;;;;;;5075244;28;20063;-88
2023/09/08 11:43:03;;;;;;;0.00;0.00;;;;;;;;;;5074612;28;20509;-88
2023/09/08 11:45:30;;;;;;;0.00;0.00;;;;;;;;;;5074247;28;20464;-88
2023/09/08 11:47:56;;;;;;;0.00;0.00;;;;;;;;;;5075601;28;20511;-88
2023/09/08 11:50:23;;;;;;;0.00;0.00;;;;;;;;;;5057547;28;20127;-90
2023/09/08 11:52:50;;;;;;;0.00;0.00;;;;;;;;;;5058055;28;20350;-89
2023/09/08 11:55:17;;;;;;;0.00;0.00;;;;;;;;;;5074474;28;20048;-88
2023/09/08 11:57:44;;;;;;;0.00;0.00;;;;;;;;;;5057396;28;20127;-89
2023/09/08 12:00:15;;;;;;;0.00;0.00;;;;;;;;;;5074079;28;20070;-89
2023/09/08 12:02:41;;;;;;;0.00;0.00;;;;;;;;;;5074241;28;20037;-88
2023/09/08 12:05:28;;;;;;;0.00;0.00;;;;;;;;;;5057375;28;20047;-89
2023/09/08 12:07:56;;;;;;;0.00;0.00;;;;;;;;;;5074621;28;20364;-89
2023/09/08 12:10:22;;;;;;;0.00;0.00;;;;;;;;;;5073919;28;20041;-89
2023/09/08 12:12:49;;;;;;;0.00;0.00;;;;;;;;;;5074200;28;20082;-88
2023/09/08 12:15:34;;;;;;;0.00;0.00;;;;;;;;;;5075401;28;20064;-88
2023/09/08 12:18:04;;;;;;;0.00;0.00;;;;;;;;;;5057018;28;20055;-87
2023/09/08 12:20:31;;;;;;;0.00;0.00;;;;;;;;;;5073656;28;20067;-88
2023/09/08 12:23:04;;;;;;;0.00;0.00;;;;;;;;;;5073566;28;20036;-88
2023/09/08 12:25:31;;;;;;;0.00;0.00;;;;;;;;;;5073176;28;20040;-89
2023/09/08 12:27:57;;;;;;;0.00;0.00;;;;;;;;;;5073239;28;20045;-87
2023/09/08 12:30:32;;;;;;;0.00;0.00;;;;;;;;;;5056827;28;20380;-88
2023/09/08 12:32:58;;;;;;;0.00;0.00;;;;;;;;;;5056324;28;20047;-87
2023/09/08 12:35:25;;;;;;;0.00;0.00;;;;;;;;;;5073077;28;20044;-88
2023/09/08 12:38:09;;;;;;;0.00;0.00;;;;;;;;;;5072794;28;20048;-87
2023/09/08 12:40:36;;;;;;;0.00;0.00;;;;;;;;;;5073812;28;20036;-87
2023/09/08 12:43:02;;;;;;;0.00;0.00;;;;;;;;;;5072753;28;20075;-87
2023/09/08 12:45:28;;;;;;;0.00;0.00;;;;;;;;;;5072974;28;20040;-88
2023/09/08 12:47:57;;;;;;;0.00;0.00;;;;;;;;;;5072860;28;20048;-87
2023/09/08 12:50:23;;;;;;;0.00;0.00;;;;;;;;;;5056552;28;20075;-87
2023/09/08 12:52:49;;;;;;;0.00;0.00;;;;;;;;;;5073729;28;20051;-89
2023/09/08 12:55:15;;;;;;;0.00;0.00;;;;;;;;;;5072871;28;20093;-88
2023/09/08 12:57:41;;;;;;;0.00;0.00;;;;;;;;;;5055920;28;20054;-87
2023/09/08 13:00:08;;;;;;;0.10;0.10;;;;;;;;;;5056346;28;20041;-88
2023/09/08 13:02:34;;;;;;;0.00;0.00;;;;;;;;;;5072756;28;20094;-87
2023/09/08 13:05:00;;;;;;;0.00;0.00;;;;;;;;;;5072579;28;20076;-88
2023/09/08 13:07:26;;;;;;;0.00;0.00;;;;;;;;;;5073972;28;20117;-86
2023/09/08 13:09:53;;;;;;;0.00;0.00;;;;;;;;;;5073223;28;20044;-88
2023/09/08 13:12:19;;;;;;;0.00;0.00;;;;;;;;;;5072568;28;20037;-88
2023/09/08 13:14:45;;;;;;;0.00;0.00;;;;;;;;;;5072712;28;20032;-88
2023/09/08 13:17:11;;;;;;;0.00;0.00;;;;;;;;;;5073448;28;20052;-88
2023/09/08 13:19:40;;;;;;;0.00;0.00;;;;;;;;;;5055692;28;20036;-89
2023/09/08 13:22:06;;;;;;;0.00;0.00;;;;;;;;;;5072322;28;20081;-89
2023/09/08 13:24:33;;;;;;;0.00;0.00;;;;;;;;;;5073199;28;20044;-89
2023/09/08 13:26:59;;;;;;;0.00;0.00;;;;;;;;;;5072049;28;20094;-87
2023/09/08 13:29:26;;;;;;;0.00;0.00;;;;;;;;;;5055829;28;20048;-87
2023/09/08 13:31:52;;;;;;;0.00;0.00;;;;;;;;;;5055368;28;20044;-87
2023/09/08 13:34:18;;;;;;;0.00;0.00;;;;;;;;;;5072310;28;20047;-86
2023/09/08 13:36:44;;;;;;;0.00;0.00;;;;;;;;;;5072201;28;20044;-86
2023/09/08 13:39:10;;;;;;;0.00;0.00;;;;;;;;;;5071876;28;20139;-87
2023/09/08 13:41:49;;;;;;;0.00;0.00;;;;;;;;;;5055029;28;20044;-87
2023/09/08 13:44:15;;;;;;;0.00;0.00;;;;;;;;;;5055535;28;20090;-87
2023/09/08 13:46:41;;;;;;;0.00;0.00;;;;;;;;;;5071775;28;20464;-87
2023/09/08 13:49:07;;;;;;;0.00;0.00;;;;;;;;;;5072047;28;20047;-87
2023/09/08 13:51:33;;;;;;;0.00;0.00;;;;;;;;;;5072958;28;20490;-88
2023/09/08 13:53:59;;;;;;;0.00;0.00;;;;;;;;;;5072087;28;20135;-87
2023/09/08 13:56:26;;;;;;;0.00;0.00;;;;;;;;;;5055228;28;20094;-86
2023/09/08 13:58:52;;;;;;;0.00;0.00;;;;;;;;;;5072666;28;20036;-86
2023/09/08 14:01:18;;;;;;;0.00;0.00;;;;;;;;;;5071499;28;20041;-86
2023/09/08 14:03:44;;;;;;;0.00;0.00;;;;;;;;;;5072733;28;20456;-88
2023/09/08 14:06:10;;;;;;;0.00;0.00;;;;;;;;;;5071599;28;20036;-86
2023/09/08 14:08:36;;;;;;;0.00;0.00;;;;;;;;;;5071596;28;20047;-87
2023/09/08 14:11:02;;;;;;;0.00;0.00;;;;;;;;;;5072835;28;20063;-87
2023/09/08 14:13:28;;;;;;;0.00;0.00;;;;;;;;;;5054852;28;20040;-87
2023/09/08 14:15:54;;;;;;;0.00;0.00;;;;;;;;;;5071346;28;20441;-87
2023/09/08 14:18:20;;;;;;;0.00;0.00;;;;;;;;;;5071136;28;20075;-87
2023/09/08 14:20:46;;;;;;;0.00;0.00;;;;;;;;;;5072931;28;20068;-87
2023/09/08 14:23:12;;;;;;;0.00;0.00;;;;;;;;;;5071720;28;20044;-86
2023/09/08 14:25:38;;;;;;;0.00;0.00;;;;;;;;;;5073310;28;20036;-86
2023/09/08 14:28:05;;;;;;;0.00;0.00;;;;;;;;;;5071804;28;20384;-87
2023/09/08 14:30:31;;;;;;;0.00;0.00;;;;;;;;;;5071519;28;20040;-86
2023/09/08 14:32:57;;;;;;;0.00;0.00;;;;;;;;;;5054585;28;20036;-86
2023/09/08 14:35:23;;;;;;;0.00;0.00;;;;;;;;;;5071368;28;20072;-86
2023/09/08 14:37:49;;;;;;;0.00;0.00;;;;;;;;;;5054404;28;20394;-87
2023/09/08 14:40:15;;;;;;;0.00;0.00;;;;;;;;;;5071199;28;20040;-85
2023/09/08 14:42:41;;;;;;;0.00;0.00;;;;;;;;;;5070938;28;20037;-86